Time;durP1;ratioP1;P1;durP2;ratioP2;P2;SDS_P1;SDS_P2;PMS_P1;PMS_P2;Temp;Humidity;BMP_temperature;BMP_pressure;BME280_temperature;BME280_humidity;BME280_pressure;Samples;Min_cycle;Max_cycle;Signal;HPM_P1;HPM_P2
2022/01/20 00:03:36;;;;;;;8.88;5.20;;;;;;;0.28;70.05;97052.16;10263406;28;96953;-63
2022/01/20 00:09:04;;;;;;;8.23;5.07;;;;;;;0.29;69.92;97047.84;10268774;28;97204;-63
2022/01/20 00:35:31;;;;;;;13.65;6.90;;;;;;;-0.08;70.70;97055.31;10365819;28;99489;-63
2022/01/20 00:40:36;;;;;;;11.52;6.90;;;;;;;-0.12;70.71;97064.06;10353935;28;96766;-64
2022/01/20 00:45:39;;;;;;;11.27;6.23;;;;;;;-0.09;70.83;97068.22;10338507;28;97002;-64
2022/01/20 00:50:42;;;;;;;7.97;5.07;;;;;;;-0.09;71.14;97058.81;10355099;28;96876;-63
2022/01/20 00:55:46;;;;;;;9.70;4.60;;;;;;;-0.04;70.65;97059.47;10343371;28;97140;-63
2022/01/20 01:00:49;;;;;;;8.50;5.43;;;;;;;-0.05;70.79;97059.53;10338802;28;97731;-63
2022/01/20 01:06:04;;;;;;;3.90;2.20;;;;;;;-0.25;71.54;97062.88;10361793;28;97918;-63
2022/01/20 01:11:09;;;;;;;4.63;2.60;;;;;;;-0.24;71.38;97055.13;10353200;28;97842;-64
2022/01/20 01:16:13;;;;;;;7.53;3.60;;;;;;;-0.10;71.16;97062.25;10367713;28;96708;-64
2022/01/20 01:21:28;;;;;;;3.53;2.45;;;;;;;0.00;71.15;97048.16;10358548;28;96929;-68
2022/01/20 01:26:32;;;;;;;5.50;3.67;;;;;;;0.04;71.00;97056.56;10363020;28;96671;-68
2022/01/20 01:31:37;;;;;;;7.03;3.97;;;;;;;0.02;71.21;97051.47;10348418;28;98828;-66
2022/01/20 01:36:50;;;;;;;3.83;2.63;;;;;;;0.04;71.38;97062.53;10347213;28;101720;-63
2022/01/20 01:41:56;;;;;;;7.70;3.30;;;;;;;-0.06;71.23;97058.69;10360925;28;97911;-63
2022/01/20 01:47:00;;;;;;;5.07;2.60;;;;;;;-0.24;71.78;97075.66;10344539;28;96970;-63
2022/01/20 01:52:03;;;;;;;7.13;3.80;;;;;;;-0.31;71.83;97073.41;10359769;28;98577;-63
2022/01/20 01:57:09;;;;;;;8.13;4.47;;;;;;;-0.27;71.66;97085.22;10347262;28;96915;-64
2022/01/20 02:02:12;;;;;;;4.60;2.45;;;;;;;-0.26;72.13;97079.19;10350527;28;98663;-63
2022/01/20 02:07:40;;;;;;;6.82;4.50;;;;;;;-0.18;71.66;97075.44;10356103;28;97438;-65
2022/01/20 02:18:25;;;;;;;7.55;4.05;;;;;;;-0.23;72.18;97050.81;10354799;28;96766;-63
2022/01/20 02:23:30;;;;;;;7.28;4.07;;;;;;;-0.19;71.91;97052.38;10346050;28;98423;-64
2022/01/20 02:28:35;;;;;;;10.43;5.75;;;;;;;-0.24;71.58;97069.69;10347001;28;97096;-63
2022/01/20 02:33:37;;;;;;;8.65;4.53;;;;;;;-0.42;72.55;97066.13;10356867;28;97110;-64
2022/01/20 02:38:46;;;;;;;5.88;3.40;;;;;;;-0.32;72.67;97057.13;10350530;28;98237;-64
2022/01/20 02:49:14;;;;;;;6.03;3.53;;;;;;;-0.21;72.43;97049.03;10361968;28;96969;-63
2022/01/20 02:54:19;;;;;;;7.80;4.53;;;;;;;-0.34;72.80;97059.78;10347688;28;96910;-64
2022/01/20 02:59:22;;;;;;;6.97;4.20;;;;;;;-0.28;72.72;97047.63;10350860;28;97280;-63
2022/01/20 03:04:26;;;;;;;5.97;3.58;;;;;;;-0.19;72.42;97054.94;10351169;28;102417;-64
2022/01/20 03:09:30;;;;;;;12.55;6.93;;;;;;;-0.14;72.43;97048.72;10364931;28;97218;-63
2022/01/20 03:14:33;;;;;;;9.48;5.95;;;;;;;-0.10;72.50;97039.16;10345695;28;96704;-63
2022/01/20 03:19:37;;;;;;;9.45;5.03;;;;;;;-0.05;72.28;97034.66;10343736;28;97205;-63
2022/01/20 03:24:41;;;;;;;8.07;4.40;;;;;;;0.02;72.41;97030.09;10356840;28;97183;-63
2022/01/20 03:29:44;;;;;;;7.75;4.68;;;;;;;0.01;72.73;97039.56;10355787;28;97329;-64
2022/01/20 03:34:47;;;;;;;7.95;4.18;;;;;;;-0.07;72.79;97043.34;10381644;27;97686;-63
2022/01/20 03:39:51;;;;;;;8.30;5.18;;;;;;;-0.42;72.85;97051.56;10367255;28;97030;-65
2022/01/20 03:44:54;;;;;;;6.38;4.22;;;;;;;-0.45;73.67;97056.81;10362145;28;96682;-63
2022/01/20 03:50:08;;;;;;;6.53;3.60;;;;;;;-0.50;73.77;97051.00;10360184;28;97242;-63
2022/01/20 03:55:12;;;;;;;5.57;3.42;;;;;;;-0.52;73.54;97045.09;10343814;28;96936;-64
2022/01/20 04:00:15;;;;;;;6.10;3.60;;;;;;;-0.40;73.18;97038.66;10374453;28;98810;-63
2022/01/20 04:05:18;;;;;;;6.35;3.35;;;;;;;-0.39;73.13;97046.31;10346849;28;96925;-64
2022/01/20 04:10:22;;;;;;;5.53;3.30;;;;;;;-0.33;73.19;97035.78;10349022;28;97581;-63
2022/01/20 04:15:35;;;;;;;7.57;4.15;;;;;;;-0.22;73.12;97024.25;10355585;28;97226;-63
2022/01/20 04:20:39;;;;;;;6.68;3.97;;;;;;;-0.16;72.80;97021.44;10362917;28;96882;-64
2022/01/20 04:25:43;;;;;;;6.25;4.00;;;;;;;-0.20;72.74;97019.88;10355836;28;97614;-63
2022/01/20 04:30:46;;;;;;;6.82;4.65;;;;;;;-0.10;72.80;97015.22;10353493;28;97201;-65
2022/01/20 04:35:49;;;;;;;5.05;4.03;;;;;;;-0.02;72.42;97014.00;10356252;28;96924;-64
2022/01/20 04:40:53;;;;;;;7.30;4.10;;;;;;;0.02;72.81;97025.81;10354493;28;97731;-63
2022/01/20 04:46:06;;;;;;;8.45;4.38;;;;;;;-0.05;72.90;97031.25;10347179;28;97909;-64
2022/01/20 05:01:52;;;;;;;8.88;4.00;;;;;;;-0.04;73.01;97031.22;10371237;28;96984;-64
2022/01/20 05:06:57;;;;;;;4.97;2.95;;;;;;;0.02;72.59;97018.09;10353137;28;97061;-63
2022/01/20 05:12:05;;;;;;;5.17;3.43;;;;;;;0.10;72.37;97027.22;10359450;28;97999;-65
2022/01/20 05:17:08;;;;;;;5.50;3.33;;;;;;;0.16;72.79;97037.25;10362950;28;98882;-66
2022/01/20 05:22:10;;;;;;;6.10;3.63;;;;;;;0.00;73.04;97037.88;10368028;28;96807;-63
2022/01/20 05:27:15;;;;;;;6.18;3.47;;;;;;;-0.22;73.51;97043.03;10362627;28;97954;-63
2022/01/20 05:32:17;;;;;;;5.43;3.60;;;;;;;-0.16;73.53;97047.13;10346050;28;96847;-63
2022/01/20 05:37:20;;;;;;;5.57;3.22;;;;;;;-0.00;73.04;97047.31;10346546;28;101742;-65
2022/01/20 05:42:24;;;;;;;6.03;3.67;;;;;;;0.10;73.07;97055.47;10362975;28;96913;-64
2022/01/20 05:47:30;;;;;;;6.90;4.13;;;;;;;-0.02;73.37;97047.38;10345541;28;96878;-64
2022/01/20 05:52:36;;;;;;;7.22;3.60;;;;;;;0.04;73.37;97049.69;10358832;28;96826;-64
2022/01/20 05:57:41;;;;;;;4.97;3.20;;;;;;;0.11;73.10;97062.28;10367913;28;96958;-64
2022/01/20 06:08:05;;;;;;;5.30;2.72;;;;;;;0.13;73.55;97045.06;10369987;28;97123;-64
2022/01/20 06:13:10;;;;;;;5.97;3.90;;;;;;;0.19;72.72;97048.22;10359243;28;98486;-66
2022/01/20 06:18:13;;;;;;;8.57;5.07;;;;;;;0.25;73.06;97047.13;10346858;28;96718;-63
2022/01/20 06:23:17;;;;;;;8.23;4.35;;;;;;;0.25;73.12;97054.84;10342683;28;96814;-65
2022/01/20 06:28:22;;;;;;;6.45;3.38;;;;;;;0.11;73.45;97060.53;10368661;28;97706;-68
2022/01/20 06:33:24;;;;;;;6.95;4.25;;;;;;;0.03;73.10;97042.06;10363454;28;96899;-64
2022/01/20 06:38:28;;;;;;;7.10;3.80;;;;;;;-0.06;73.46;97037.28;10348384;28;96895;-64
2022/01/20 06:43:33;;;;;;;5.13;3.65;;;;;;;-0.15;73.50;97038.50;10357577;28;98515;-64
2022/01/20 06:48:36;;;;;;;;;;;;;;;-0.15;73.86;97046.19;10355334;28;97765;-64
2022/01/20 06:53:39;;;;;;;6.47;3.55;;;;;;;-0.39;74.07;97071.97;10366235;28;97334;-64
2022/01/20 06:58:43;;;;;;;6.95;3.95;;;;;;;-0.55;74.69;97076.00;10363258;28;97073;-65
2022/01/20 07:03:46;;;;;;;5.00;3.70;;;;;;;-0.55;74.65;97061.44;10349893;28;102171;-64
2022/01/20 07:08:49;;;;;;;7.57;4.20;;;;;;;-0.42;74.33;97074.66;10340766;28;97299;-64
2022/01/20 07:13:53;;;;;;;6.35;3.97;;;;;;;-0.47;74.47;97068.88;10361855;28;97328;-64
2022/01/20 07:18:56;;;;;;;6.43;3.38;;;;;;;-0.46;74.64;97073.09;10344176;28;98968;-63
2022/01/20 07:23:59;;;;;;;5.10;3.20;;;;;;;-0.32;74.48;97052.00;10357400;28;97645;-65
2022/01/20 07:29:04;;;;;;;4.95;3.25;;;;;;;-0.19;74.37;97052.38;10364357;28;99433;-63
2022/01/20 07:34:06;;;;;;;6.82;3.90;;;;;;;-0.08;74.27;97052.75;10351896;28;98572;-64
2022/01/20 07:39:10;;;;;;;4.35;3.00;;;;;;;0.09;74.17;97051.25;10353842;28;97072;-63
2022/01/20 07:44:17;;;;;;;5.47;3.30;;;;;;;0.13;74.27;97052.78;10361809;28;100515;-64
2022/01/20 07:49:20;;;;;;;7.13;4.57;;;;;;;-0.26;74.65;97056.09;10353046;28;98683;-65
2022/01/20 07:54:23;;;;;;;12.05;6.78;;;;;;;-0.17;75.03;97051.41;10357609;28;97098;-64
2022/01/20 07:59:27;;;;;;;7.47;5.47;;;;;;;-0.03;74.36;97053.41;10355418;28;98715;-63
2022/01/20 08:04:30;;;;;;;9.43;5.63;;;;;;;0.00;74.34;97035.31;10346638;28;97058;-64
2022/01/20 08:09:33;;;;;;;7.18;5.68;;;;;;;-0.05;74.36;97044.09;10338098;28;97248;-63
2022/01/20 08:14:56;;;;;;;8.65;5.78;;;;;;;-0.07;74.50;97039.03;10357953;28;96952;-63
2022/01/20 08:19:59;;;;;;;6.70;5.00;;;;;;;-0.09;74.18;97035.69;10365219;28;98708;-65
2022/01/20 08:25:02;;;;;;;8.13;5.35;;;;;;;-0.10;74.36;97052.00;10357413;28;97720;-63
2022/01/20 08:30:10;;;;;;;11.63;6.43;;;;;;;-0.18;75.48;97054.03;10361428;28;97413;-68
2022/01/20 08:35:13;;;;;;;9.15;5.75;;;;;;;-0.15;75.05;97049.63;10376114;28;96824;-64
2022/01/20 08:40:18;;;;;;;7.10;4.65;;;;;;;0.07;74.97;97047.91;10371637;28;100806;-66
2022/01/20 08:45:25;;;;;;;5.97;3.88;;;;;;;0.40;74.58;97041.34;10377761;28;99048;-64
2022/01/20 08:50:30;;;;;;;6.13;3.28;;;;;;;0.63;74.11;97047.22;10362830;28;97171;-64
2022/01/20 08:55:33;;;;;;;6.13;3.08;;;;;;;0.83;74.04;97037.78;10358356;28;100897;-64
2022/01/20 09:00:38;;;;;;;5.65;3.03;;;;;;;1.10;73.71;97046.03;10367210;28;98499;-64
2022/01/20 09:05:41;;;;;;;9.50;4.10;;;;;;;1.30;73.35;97060.56;10358136;28;97226;-65
2022/01/20 09:10:51;;;;;;;13.60;4.78;;;;;;;1.47;73.51;97068.34;10359287;28;97523;-64
2022/01/20 09:15:55;;;;;;;3.95;2.47;;;;;;;1.70;72.80;97071.59;10357080;28;98408;-64
2022/01/20 09:20:58;;;;;;;6.90;4.00;;;;;;;1.90;72.66;97084.34;10359626;28;97578;-64
2022/01/20 09:26:02;;;;;;;7.15;4.65;;;;;;;2.11;72.50;97089.34;10366295;28;103114;-66
2022/01/20 09:31:08;;;;;;;9.05;5.78;;;;;;;2.33;71.79;97080.59;10367267;28;98441;-65
2022/01/20 09:36:12;;;;;;;;;;;;;;;2.44;71.66;97078.28;10376676;28;98362;-64
2022/01/20 09:41:15;;;;;;;7.88;4.07;;;;;;;2.54;71.17;97074.34;10373495;28;97324;-65
2022/01/20 09:46:19;;;;;;;6.93;3.60;;;;;;;2.65;71.41;97071.19;10357929;27;97449;-65
2022/01/20 09:51:22;;;;;;;4.37;2.80;;;;;;;2.82;70.46;97062.59;10370470;28;97161;-64
2022/01/20 09:56:25;;;;;;;4.47;2.97;;;;;;;2.94;70.24;97087.78;10365206;28;98392;-64
2022/01/20 10:01:37;;;;;;;4.78;2.95;;;;;;;2.97;69.90;97092.78;10361914;28;98559;-64
2022/01/20 10:06:51;;;;;;;6.72;3.20;;;;;;;3.10;70.27;97092.13;10367114;28;97277;-65
2022/01/20 10:11:54;;;;;;;6.68;3.35;;;;;;;3.30;69.52;97110.00;10347982;28;97462;-65
2022/01/20 10:16:58;;;;;;;8.57;3.30;;;;;;;3.49;68.74;97114.19;10367242;28;98640;-64
2022/01/20 10:22:11;;;;;;;7.57;3.42;;;;;;;3.61;68.15;97135.03;10375442;28;97014;-64
2022/01/20 10:27:15;;;;;;;7.07;3.58;;;;;;;3.77;68.30;97129.84;10368611;28;96990;-65
2022/01/20 10:32:19;;;;;;;6.68;2.95;;;;;;;3.79;66.93;97137.53;10362409;28;96913;-65
2022/01/20 10:37:25;;;;;;;4.80;2.67;;;;;;;3.90;66.65;97129.16;10364798;28;98078;-64
2022/01/20 10:42:28;;;;;;;3.65;2.90;;;;;;;3.93;66.54;97105.75;10360301;28;96969;-66
2022/01/20 10:47:36;;;;;;;3.72;2.20;;;;;;;4.08;66.18;97093.72;10361382;28;97314;-66
2022/01/20 10:52:44;;;;;;;2.10;1.60;;;;;;;4.16;65.27;97088.94;10351247;28;97336;-65
2022/01/20 10:57:47;;;;;;;2.55;1.45;;;;;;;4.17;65.95;97086.25;10359015;27;98298;-64
2022/01/20 11:02:54;;;;;;;3.53;2.33;;;;;;;4.20;65.75;97080.09;10347192;28;97010;-64
2022/01/20 11:07:57;;;;;;;4.32;1.95;;;;;;;4.17;65.52;97078.50;10352357;28;98756;-65
2022/01/20 11:13:00;;;;;;;3.15;2.25;;;;;;;4.11;65.31;97070.28;10345247;28;97141;-64
2022/01/20 11:18:05;;;;;;;5.22;2.65;;;;;;;4.05;65.33;97058.50;10365805;28;97301;-64
2022/01/20 11:23:08;;;;;;;4.18;2.60;;;;;;;3.93;65.43;97061.78;10363767;28;97723;-65
2022/01/20 11:28:13;;;;;;;5.70;2.85;;;;;;;3.74;64.41;97057.69;10360728;28;96934;-64
2022/01/20 11:33:18;;;;;;;6.63;2.30;;;;;;;3.73;64.36;97056.00;10353333;28;96845;-66
2022/01/20 11:38:24;;;;;;;4.73;2.20;;;;;;;3.84;64.40;97057.97;10339160;28;98008;-65
2022/01/20 11:43:37;;;;;;;2.67;1.83;;;;;;;3.82;63.38;97052.88;10336382;28;97816;-64
2022/01/20 11:48:53;;;;;;;3.60;2.10;;;;;;;3.89;63.77;97034.47;10354611;28;98235;-64
2022/01/20 11:53:58;;;;;;;4.63;2.30;;;;;;;4.10;63.55;97033.22;10331717;28;96745;-65
2022/01/20 11:59:02;;;;;;;2.88;2.22;;;;;;;4.37;63.78;97024.81;10340879;28;96990;-65
2022/01/20 12:04:06;;;;;;;3.63;2.10;;;;;;;4.76;63.65;97015.56;10334979;28;97282;-66
2022/01/20 12:09:09;;;;;;;3.15;1.45;;;;;;;5.09;62.73;97014.44;10361769;28;100697;-65
2022/01/20 12:14:13;;;;;;;3.10;1.67;;;;;;;5.28;62.19;97002.00;10345688;28;97195;-65
2022/01/20 12:19:17;;;;;;;2.37;1.67;;;;;;;5.33;61.73;96999.97;10350698;28;98439;-66
2022/01/20 12:24:20;;;;;;;2.78;1.75;;;;;;;5.33;61.49;96989.59;10374270;28;98565;-66
2022/01/20 12:29:34;;;;;;;2.10;1.73;;;;;;;5.34;61.22;96980.91;10344654;28;98996;-65
2022/01/20 12:34:38;;;;;;;2.85;1.60;;;;;;;5.22;60.53;96984.28;10353221;28;97001;-69
2022/01/20 12:39:41;;;;;;;2.13;1.20;;;;;;;4.75;60.84;96972.50;10384839;28;97057;-65
2022/01/20 12:44:48;;;;;;;2.10;1.20;;;;;;;4.78;61.02;96964.53;10342235;28;96932;-65
2022/01/20 12:49:56;;;;;;;1.40;1.00;;;;;;;4.94;60.40;96967.00;10342113;28;97072;-65
2022/01/20 12:54:59;;;;;;;2.40;1.33;;;;;;;5.02;60.69;96963.97;10340993;28;97691;-65
2022/01/20 13:00:06;;;;;;;2.42;1.45;;;;;;;5.18;60.01;96963.81;10352004;28;96804;-65
2022/01/20 13:05:11;;;;;;;2.08;1.10;;;;;;;5.37;60.08;96961.72;10361852;28;98691;-66
2022/01/20 13:10:21;;;;;;;;;;;;;;;5.47;60.44;96956.81;10354070;28;98473;-65
2022/01/20 13:15:24;;;;;;;2.95;1.40;;;;;;;5.54;60.19;96955.47;10348788;28;99366;-68
2022/01/20 13:20:31;;;;;;;1.88;1.52;;;;;;;5.73;59.69;96947.34;10355332;28;97201;-65
2022/01/20 13:25:39;;;;;;;2.08;1.30;;;;;;;5.70;59.39;96940.59;10346477;28;97040;-66
2022/01/20 13:30:47;;;;;;;2.22;1.45;;;;;;;5.71;58.81;96946.59;10351062;28;100896;-65
2022/01/20 13:35:56;;;;;;;4.45;2.00;;;;;;;5.72;58.94;96943.91;10352000;28;97210;-65
2022/01/20 13:41:07;;;;;;;3.20;2.00;;;;;;;5.75;59.43;96931.69;10356970;28;97835;-65
2022/01/20 13:46:20;;;;;;;2.00;1.70;;;;;;;5.84;59.36;96937.09;10353299;28;96997;-65
2022/01/20 13:51:27;;;;;;;3.50;1.60;;;;;;;5.74;59.05;96935.19;10336233;28;98164;-65
2022/01/20 13:56:30;;;;;;;3.47;2.05;;;;;;;5.39;59.49;96946.09;10342664;28;101538;-65
2022/01/20 14:01:33;;;;;;;2.58;1.60;;;;;;;5.42;59.46;96951.91;10339066;28;96969;-65
2022/01/20 14:06:38;;;;;;;2.10;1.73;;;;;;;5.37;59.54;96945.38;10345721;28;100053;-66
2022/01/20 14:11:42;;;;;;;3.78;2.25;;;;;;;5.29;59.56;96949.28;10339316;28;97020;-65
2022/01/20 14:16:45;;;;;;;5.32;2.17;;;;;;;5.36;59.58;96936.78;10354434;28;96903;-65
2022/01/20 14:21:50;;;;;;;2.58;1.70;;;;;;;5.60;59.29;96929.16;10345515;28;100722;-65
2022/01/20 14:26:57;;;;;;;2.63;2.00;;;;;;;5.95;59.11;96938.97;10342072;28;99934;-67
2022/01/20 14:32:01;;;;;;;2.78;1.95;;;;;;;5.94;58.63;96942.50;10361196;28;97845;-66
2022/01/20 14:37:05;;;;;;;2.60;1.70;;;;;;;5.81;58.60;96939.03;10359299;28;98641;-65
2022/01/20 14:42:11;;;;;;;3.17;2.07;;;;;;;5.66;58.79;96944.31;10354160;28;97079;-65
2022/01/20 14:47:15;;;;;;;3.72;2.15;;;;;;;5.38;59.13;96934.91;10353117;28;96873;-65
2022/01/20 14:52:19;;;;;;;2.83;1.85;;;;;;;5.13;59.08;96946.84;10337933;28;96752;-66
2022/01/20 14:57:24;;;;;;;5.38;2.28;;;;;;;4.93;59.56;96942.88;10355028;28;97348;-65
2022/01/20 15:02:35;;;;;;;3.83;1.85;;;;;;;4.84;59.70;96946.06;10364131;28;96969;-66
2022/01/20 15:07:40;;;;;;;3.05;2.00;;;;;;;4.82;59.61;96936.72;10353930;28;97049;-66
2022/01/20 15:12:44;;;;;;;3.97;2.03;;;;;;;4.54;59.44;96938.41;10355735;28;98139;-66
2022/01/20 15:17:47;;;;;;;6.47;2.50;;;;;;;4.42;59.33;96940.00;10362337;28;97642;-65
2022/01/20 15:22:51;;;;;;;3.83;1.70;;;;;;;4.22;59.26;96938.59;10370703;28;97444;-66
2022/01/20 15:27:54;;;;;;;2.00;0.90;;;;;;;3.94;57.70;96950.56;10346253;28;97870;-65
2022/01/20 15:32:57;;;;;;;2.33;1.17;;;;;;;3.72;56.89;96955.28;10360493;28;96979;-65
2022/01/20 15:38:01;;;;;;;1.75;0.85;;;;;;;3.54;56.27;96957.19;10341933;28;97152;-65
2022/01/20 15:43:04;;;;;;;2.72;0.70;;;;;;;3.42;55.99;96967.28;10347794;28;97013;-68
2022/01/20 15:48:08;;;;;;;1.88;0.90;;;;;;;3.32;55.97;96979.03;10355811;28;96945;-66
2022/01/20 15:53:12;;;;;;;1.02;0.60;;;;;;;3.19;55.01;96975.47;10348315;28;97312;-66
2022/01/20 15:58:16;;;;;;;2.07;0.80;;;;;;;3.11;55.09;96964.72;10343240;28;98512;-66
2022/01/20 16:03:18;;;;;;;1.80;0.82;;;;;;;3.00;54.75;96973.88;10347068;28;97933;-66
2022/01/20 16:08:23;;;;;;;1.75;0.70;;;;;;;2.85;54.43;96979.88;10337715;28;97049;-65
2022/01/20 16:13:26;;;;;;;1.27;0.70;;;;;;;2.76;55.20;96985.53;10355816;28;97146;-65
2022/01/20 16:18:34;;;;;;;2.10;1.13;;;;;;;2.74;55.06;96993.34;10355046;28;98480;-67
2022/01/20 16:23:39;;;;;;;3.35;1.60;;;;;;;2.73;54.49;96999.41;10343873;28;97581;-64
2022/01/20 16:28:42;;;;;;;8.87;3.23;;;;;;;2.78;54.17;96996.59;10344784;28;97249;-65
2022/01/20 16:33:45;;;;;;;1.10;0.60;;;;;;;2.81;54.65;97009.34;10350979;28;97831;-65
2022/01/20 16:38:49;;;;;;;1.00;0.70;;;;;;;2.81;54.18;97014.50;10341090;28;104307;-65
2022/01/20 16:43:52;;;;;;;2.05;1.23;;;;;;;2.84;54.06;97016.91;10336101;28;99495;-66
2022/01/20 16:48:58;;;;;;;2.33;1.25;;;;;;;2.85;53.91;97023.75;10343145;28;96788;-64
2022/01/20 16:54:04;;;;;;;3.05;1.20;;;;;;;2.81;54.32;97019.66;10351797;28;99441;-65
2022/01/20 16:59:07;;;;;;;2.35;1.05;;;;;;;2.74;54.68;97028.66;10347248;28;98907;-64
2022/01/20 17:04:10;;;;;;;2.90;1.33;;;;;;;2.72;54.98;97026.13;10343668;28;100943;-65
2022/01/20 17:09:14;;;;;;;4.95;0.90;;;;;;;2.58;54.36;97024.28;10356089;28;98022;-66
2022/01/20 17:14:17;;;;;;;2.90;1.25;;;;;;;2.55;54.01;97037.31;10349949;28;97172;-65
2022/01/20 17:19:20;;;;;;;2.33;1.15;;;;;;;2.50;54.38;97047.03;10343874;28;99292;-64
2022/01/20 17:24:24;;;;;;;4.22;2.45;;;;;;;2.45;54.53;97043.84;10346916;28;98931;-64
2022/01/20 17:29:27;;;;;;;3.47;1.38;;;;;;;2.38;53.67;97030.44;10340001;28;99515;-66
2022/01/20 17:34:29;;;;;;;3.10;1.30;;;;;;;2.32;54.37;97030.75;10350637;28;98220;-65
2022/01/20 17:39:34;;;;;;;5.95;1.65;;;;;;;2.31;54.36;97027.34;10347597;28;98510;-65
2022/01/20 17:44:37;;;;;;;4.40;1.58;;;;;;;2.28;54.29;97036.97;10350335;28;97368;-65
2022/01/20 17:49:40;;;;;;;4.20;1.58;;;;;;;2.26;54.65;97044.78;10350362;28;97841;-65
2022/01/20 17:54:44;;;;;;;3.78;1.75;;;;;;;2.25;54.67;97048.28;10339450;28;98567;-65
2022/01/20 17:59:48;;;;;;;3.78;1.60;;;;;;;2.22;55.32;97051.00;10348389;28;97587;-65
2022/01/20 18:04:51;;;;;;;5.00;1.77;;;;;;;2.15;55.06;97041.06;10350420;28;97133;-64
2022/01/20 18:09:55;;;;;;;4.18;1.88;;;;;;;2.07;55.54;97044.84;10345468;28;97751;-65
2022/01/20 18:14:58;;;;;;;4.47;2.00;;;;;;;2.01;56.16;97039.16;10350825;28;98925;-66
2022/01/20 18:20:02;;;;;;;4.20;1.67;;;;;;;1.89;55.81;97025.97;10345568;28;97416;-65
2022/01/20 18:25:10;;;;;;;3.78;1.90;;;;;;;1.78;56.25;97017.94;10345432;28;97799;-64
2022/01/20 18:30:16;;;;;;;4.38;2.25;;;;;;;1.74;56.05;97019.81;10349477;28;97506;-67
2022/01/20 18:35:19;;;;;;;5.70;2.85;;;;;;;1.73;56.67;97025.06;10342481;28;97531;-64
2022/01/20 18:40:26;;;;;;;5.43;2.20;;;;;;;1.65;57.16;97035.72;10343841;28;100698;-67
2022/01/20 18:45:29;;;;;;;4.45;2.08;;;;;;;1.45;57.50;97044.41;10340276;28;96858;-66
2022/01/20 18:50:32;;;;;;;4.53;1.83;;;;;;;1.33;57.74;97042.38;10345372;28;98070;-64
2022/01/20 18:55:36;;;;;;;5.43;1.90;;;;;;;1.33;58.07;97042.38;10344933;28;98849;-67
2022/01/20 19:00:41;;;;;;;3.63;1.60;;;;;;;1.41;57.82;97034.31;10340546;28;98165;-65
2022/01/20 19:05:49;;;;;;;3.28;1.70;;;;;;;1.52;57.57;97032.91;10344178;28;99576;-65
2022/01/20 19:10:54;;;;;;;3.42;1.90;;;;;;;1.59;58.20;97033.47;10342785;28;98312;-64
2022/01/20 19:15:57;;;;;;;;;;;;;;;1.51;58.09;97031.22;10339261;28;99506;-63
2022/01/20 19:21:00;;;;;;;11.13;5.80;;;;;;;1.49;58.62;97032.22;10343839;28;98085;-68
2022/01/20 19:26:04;;;;;;;8.45;3.80;;;;;;;1.59;58.74;97022.31;10342870;28;98321;-64
2022/01/20 19:31:07;;;;;;;6.72;3.30;;;;;;;1.62;58.97;97029.88;10345143;28;100526;-67
2022/01/20 19:36:11;;;;;;;6.53;3.17;;;;;;;1.65;58.34;97011.72;10340023;28;100266;-65
2022/01/20 19:41:16;;;;;;;6.05;2.80;;;;;;;1.70;58.77;97025.22;10343291;28;98420;-65
2022/01/20 19:46:18;;;;;;;5.53;3.13;;;;;;;1.74;59.29;97021.56;10339798;28;100031;-65
2022/01/20 19:51:22;;;;;;;9.77;5.95;;;;;;;1.65;58.83;97019.44;10347495;28;97273;-65
2022/01/20 19:56:27;;;;;;;8.82;4.15;;;;;;;1.68;58.88;97022.72;10341894;28;100948;-66
2022/01/20 20:01:33;;;;;;;5.47;3.05;;;;;;;1.77;59.08;97021.44;10334038;28;99058;-64
2022/01/20 20:06:36;;;;;;;5.15;2.55;;;;;;;1.83;58.69;97026.28;10338735;28;99944;-65
2022/01/20 20:11:40;;;;;;;4.05;2.45;;;;;;;1.93;58.13;97021.50;10344403;28;100441;-65
2022/01/20 20:16:43;;;;;;;2.15;1.23;;;;;;;1.99;58.31;97025.53;10334523;28;99484;-66
2022/01/20 20:21:46;;;;;;;2.70;1.30;;;;;;;2.07;58.24;97013.09;10350583;28;98183;-64
2022/01/20 20:26:50;;;;;;;4.53;2.00;;;;;;;2.17;57.74;97014.31;10360979;28;102445;-64
2022/01/20 20:31:53;;;;;;;8.17;3.67;;;;;;;2.18;58.39;97023.72;10357636;28;99267;-64
2022/01/20 20:36:57;;;;;;;7.75;3.35;;;;;;;2.13;58.94;97017.97;10358854;28;97800;-66
2022/01/20 20:42:03;;;;;;;10.52;4.45;;;;;;;2.05;59.43;97025.22;10362457;28;98250;-64
2022/01/20 20:47:06;;;;;;;12.57;4.55;;;;;;;1.98;58.81;97014.41;10354811;28;99059;-64
2022/01/20 20:52:12;;;;;;;7.78;3.15;;;;;;;1.92;59.76;97005.22;10335591;28;97215;-66
2022/01/20 20:57:16;;;;;;;6.75;3.17;;;;;;;1.89;59.61;97002.78;10343823;28;99003;-65
2022/01/20 21:02:19;;;;;;;6.18;2.92;;;;;;;1.83;59.63;96995.34;10355123;28;101045;-68
2022/01/20 21:07:25;;;;;;;8.05;2.88;;;;;;;1.73;59.39;96992.41;10359816;28;97557;-67
2022/01/20 21:12:29;;;;;;;4.00;2.15;;;;;;;1.67;58.52;96999.59;10353549;28;96976;-65
2022/01/20 21:17:33;;;;;;;3.53;1.20;;;;;;;1.65;58.38;97002.25;10353015;28;98361;-65
2022/01/20 21:22:36;;;;;;;5.25;2.80;;;;;;;1.56;58.65;97006.09;10346329;28;100676;-65
2022/01/20 21:27:41;;;;;;;4.88;2.10;;;;;;;1.47;58.53;96996.25;10359706;28;97461;-65
2022/01/20 21:32:45;;;;;;;4.90;2.20;;;;;;;1.38;59.14;97004.38;10350732;28;97178;-65
2022/01/20 21:37:49;;;;;;;3.13;1.80;;;;;;;1.29;58.91;96997.09;10363406;28;97473;-66
2022/01/20 21:42:53;;;;;;;13.80;8.13;;;;;;;1.25;59.30;97000.75;10373629;27;101276;-67
2022/01/20 21:47:57;;;;;;;5.82;3.33;;;;;;;1.25;59.59;97003.31;10355069;28;97277;-66
2022/01/20 21:52:59;;;;;;;4.38;2.60;;;;;;;1.23;59.69;96994.84;10353069;28;98563;-64
2022/01/20 21:58:04;;;;;;;6.03;3.80;;;;;;;1.20;60.02;97000.13;10368499;28;97243;-69
2022/01/20 22:03:07;;;;;;;3.13;1.93;;;;;;;1.18;60.20;96998.44;10361144;28;101405;-65
2022/01/20 22:08:10;;;;;;;4.25;1.70;;;;;;;1.14;59.71;96996.06;10364454;28;98436;-65
2022/01/20 22:13:17;;;;;;;3.38;1.88;;;;;;;1.04;59.61;96990.53;10357421;27;97030;-65
2022/01/20 22:18:20;;;;;;;5.75;2.10;;;;;;;0.95;59.79;97006.41;10363807;28;97224;-66
2022/01/20 22:23:23;;;;;;;4.45;2.08;;;;;;;0.94;59.66;97015.00;10370216;28;96867;-66
2022/01/20 22:28:28;;;;;;;2.50;1.38;;;;;;;0.93;59.90;97016.75;10362827;28;98507;-64
2022/01/20 22:33:31;;;;;;;3.25;2.00;;;;;;;0.91;59.46;97022.84;10360715;27;98588;-65
2022/01/20 22:38:34;;;;;;;3.08;1.52;;;;;;;0.96;59.16;97023.50;10346816;28;97045;-66
2022/01/20 22:43:39;;;;;;;2.83;1.30;;;;;;;1.03;59.31;97027.44;10358738;28;99546;-65
2022/01/20 22:48:43;;;;;;;4.00;1.48;;;;;;;1.08;58.91;97028.06;10364285;28;98099;-65
2022/01/20 22:53:46;;;;;;;2.40;1.15;;;;;;;1.16;58.25;97020.84;10355663;28;97969;-65
2022/01/20 22:58:50;;;;;;;2.95;1.50;;;;;;;1.21;58.89;97027.50;10350514;28;97129;-66
2022/01/20 23:03:53;;;;;;;4.13;1.80;;;;;;;1.27;58.98;97032.38;10334516;28;98688;-65
2022/01/20 23:08:57;;;;;;;5.05;1.85;;;;;;;1.28;58.51;97032.31;10358742;28;97027;-65
2022/01/20 23:14:01;;;;;;;2.15;1.27;;;;;;;1.32;59.15;97040.72;10343977;28;96808;-65
2022/01/20 23:20:48;;;;;;;3.45;1.40;;;;;;;1.34;58.85;97044.88;10351704;28;96791;-65
2022/01/20 23:24:37;;;;;;;2.13;1.20;;;;;;;1.32;57.83;97035.59;10335220;28;97796;-65
2022/01/20 23:29:41;;;;;;;1.50;1.00;;;;;;;1.23;58.45;97033.44;10345308;28;98433;-64
2022/01/20 23:34:44;;;;;;;5.87;2.40;;;;;;;1.16;58.61;97040.59;10352457;28;97116;-65
2022/01/20 23:39:52;;;;;;;4.68;1.65;;;;;;;1.02;59.03;97035.22;10362803;28;101122;-64
2022/01/20 23:45:13;;;;;;;2.78;1.48;;;;;;;0.88;59.51;97035.84;10350902;28;98805;-65
2022/01/20 23:50:15;;;;;;;2.72;1.58;;;;;;;0.77;59.45;97034.59;10364236;28;97695;-64
2022/01/20 23:55:19;;;;;;;3.25;1.60;;;;;;;0.73;59.60;97030.50;10368912;28;97886;-65
